KONA

Details ICAO KONA
Name WINONA MUNI MAX CONRAD FLD
Region United States
Timezone America/Chicago (UTC-6.0)
Plans Departing 1
Arriving 2
Stats Elevation 656 ft / 200 m (AMSL)
Location 44.076133° -91.707030°
Runways 2
Magnetic Variation 0.960° W
Sunrise 2017-12-10 13:32:31 UTC / 2017-12-10 07:32:31 Local
Sunset 2017-12-10 22:29:53 UTC / 2017-12-10 16:29:53 Local
Advertisement - Login to hide

Runways

ID Width Length Bearing (true) Bearing (mag) Surface Threshold Offset Overrun Length
12 100 ft / 30 m 5,191 ft / 1,582 m 119.47° 120.43° Asphalt 0 ft / 0 m 0 ft / 0 m
17 75 ft / 23 m 2,555 ft / 779 m 175.63° 176.59° Asphalt 0 ft / 0 m 0 ft / 0 m
30 100 ft / 30 m 5,191 ft / 1,582 m 299.48° 300.44° Asphalt 0 ft / 0 m 0 ft / 0 m
35 75 ft / 23 m 2,555 ft / 779 m 355.63° 356.59° Asphalt 150 ft / 46 m 0 ft / 0 m

Approach Navaids

Runway Type Ident Frequency Range Bearing (true) Bearing (mag) Slope Elevation
30 Localiser IONA 109.35 MHz 18 nm / 33 km 299.48° 300.44° - 656 ft / 200 m (AMSL)
30 DME IONA 109.35 MHz 18 nm / 33 km - - - 656 ft / 200 m (AMSL)

Map

Weather


0- 5 10 15 20 25 30 35+ Temperature / ° C

Clouds and Precipitation
Forecast for 2017-12-11 06:00 UTC. Updated an hour ago

Ground ~20,000 ft ~40,000 ft Winds

METAR

KONA 110355Z AUTO 00000KT 10SM OVC021 M01/M06 A3005 RMK AO2

TAF

Not found

Frequencies

Unicom 122.80 MHz CTAF/UNICOM
Warning: Do not use this data for real-world aviation or navigation. No guarantee of current accuracy is given.